createdAt,value
2018-03-22T00:00:07.639Z,36.1
2018-03-22T00:01:09.293Z,36.3
2018-03-22T00:02:10.938Z,34.8
2018-03-22T00:03:12.604Z,33.1
2018-03-22T00:04:14.251Z,33.9
2018-03-22T00:05:15.900Z,33.2
2018-03-22T00:06:17.562Z,33.0
2018-03-22T00:07:19.206Z,33.0
2018-03-22T00:08:20.917Z,32.9
2018-03-22T00:09:22.565Z,33.7
2018-03-22T00:10:24.224Z,35.6
2018-03-22T00:11:25.875Z,36.0
2018-03-22T00:12:27.526Z,34.8
2018-03-22T00:13:29.173Z,33.7
2018-03-22T00:14:30.819Z,35.6
2018-03-22T00:15:32.468Z,35.6
2018-03-22T00:16:34.116Z,35.0
2018-03-22T00:17:35.760Z,33.9
2018-03-22T00:18:37.417Z,34.8
2018-03-22T00:19:39.072Z,34.2
2018-03-22T00:20:40.722Z,34.3
2018-03-22T00:21:42.376Z,34.2
2018-03-22T00:22:44.069Z,34.6
2018-03-22T00:23:45.685Z,36.0
2018-03-22T00:24:47.343Z,34.1
2018-03-22T00:25:48.990Z,36.1
2018-03-22T00:26:50.642Z,37.0
2018-03-22T00:27:52.309Z,34.7
2018-03-22T00:28:53.949Z,38.0
2018-03-22T00:29:55.605Z,39.3
2018-03-22T00:30:57.262Z,46.1
2018-03-22T00:31:58.913Z,38.2
2018-03-22T00:33:00.563Z,36.8
2018-03-22T00:34:02.210Z,36.4
2018-03-22T00:35:03.860Z,36.6
2018-03-22T00:36:05.509Z,36.2
2018-03-22T00:37:07.167Z,42.7
2018-03-22T00:38:08.812Z,37.2
2018-03-22T00:39:10.465Z,36.3
2018-03-22T00:40:12.115Z,35.4
2018-03-22T00:41:13.771Z,36.3
2018-03-22T00:42:15.418Z,36.0
2018-03-22T00:43:17.075Z,34.4
2018-03-22T00:44:18.729Z,35.7
2018-03-22T00:45:20.372Z,33.9
2018-03-22T00:46:22.029Z,34.8
2018-03-22T00:47:23.681Z,35.9
2018-03-22T00:48:25.337Z,36.1
2018-03-22T00:49:26.989Z,35.2
2018-03-22T00:50:28.636Z,37.4
2018-03-22T00:51:30.281Z,37.4
2018-03-22T00:52:31.933Z,40.2
2018-03-22T00:53:33.580Z,42.3
2018-03-22T00:54:35.233Z,47.7
2018-03-22T00:55:36.878Z,41.8
2018-03-22T00:56:38.533Z,41.2
2018-03-22T00:57:40.181Z,41.0
2018-03-22T00:58:41.835Z,69.1
2018-03-22T00:59:43.489Z,76.0
2018-03-22T01:00:45.138Z,62.6
2018-03-22T01:01:46.789Z,65.0
2018-03-22T01:02:48.444Z,57.5
2018-03-22T01:03:50.094Z,55.5
2018-03-22T01:04:51.751Z,50.6
2018-03-22T01:05:53.390Z,46.8
2018-03-22T01:06:55.025Z,46.3
2018-03-22T01:07:56.668Z,52.7
2018-03-22T01:08:58.318Z,58.6
2018-03-22T01:09:59.957Z,55.6
2018-03-22T01:11:01.628Z,54.9
2018-03-22T01:12:03.275Z,54.3
2018-03-22T01:13:04.923Z,59.0
2018-03-22T01:14:06.563Z,57.5
2018-03-22T01:15:08.212Z,55.6
2018-03-22T01:16:09.860Z,55.3
2018-03-22T01:17:11.504Z,51.5
2018-03-22T01:18:13.154Z,51.7
2018-03-22T01:19:14.793Z,51.3
2018-03-22T01:20:16.433Z,54.0
2018-03-22T01:21:18.077Z,53.7
2018-03-22T01:22:19.718Z,53.7
2018-03-22T01:23:21.370Z,51.7
2018-03-22T01:24:23.024Z,48.2
2018-03-22T01:25:24.663Z,46.6
2018-03-22T01:26:26.319Z,46.6
2018-03-22T01:27:27.964Z,47.0
2018-03-22T01:28:29.607Z,44.6
2018-03-22T01:29:31.301Z,43.4
2018-03-22T01:30:32.949Z,44.2
2018-03-22T01:31:34.591Z,43.1
2018-03-22T01:32:36.273Z,41.2
2018-03-22T01:33:37.921Z,41.7
2018-03-22T01:34:39.568Z,41.3
2018-03-22T01:35:41.208Z,42.4
2018-03-22T01:36:42.869Z,42.4
2018-03-22T01:37:44.514Z,42.0
2018-03-22T01:38:46.157Z,44.9
2018-03-22T01:39:47.805Z,43.6
2018-03-22T01:40:49.447Z,44.2
2018-03-22T01:41:51.087Z,44.8
2018-03-22T01:42:52.732Z,41.1
2018-03-22T01:43:54.386Z,42.4
2018-03-22T01:44:56.031Z,41.1
2018-03-22T01:45:57.678Z,39.3
2018-03-22T01:46:59.341Z,42.0
2018-03-22T01:48:00.972Z,41.7
2018-03-22T01:49:02.620Z,41.3
2018-03-22T01:50:04.395Z,40.6
2018-03-22T01:51:06.047Z,39.8
2018-03-22T01:52:07.697Z,38.7
2018-03-22T01:53:09.343Z,39.3
2018-03-22T01:54:10.995Z,38.8
2018-03-22T01:55:12.648Z,36.9
2018-03-22T01:56:14.288Z,38.1
2018-03-22T01:57:15.940Z,37.0
2018-03-22T01:58:17.577Z,36.7
2018-03-22T01:59:19.240Z,37.6
2018-03-22T02:00:20.889Z,36.3
2018-03-22T02:01:22.540Z,37.6
2018-03-22T02:02:24.186Z,37.5
2018-03-22T02:03:25.817Z,38.1
2018-03-22T02:04:27.464Z,40.3
2018-03-22T02:05:29.119Z,36.8
2018-03-22T02:06:30.765Z,38.5
2018-03-22T02:07:32.400Z,39.8
2018-03-22T02:08:34.052Z,38.4
2018-03-22T02:09:35.695Z,38.7
2018-03-22T02:10:37.447Z,37.7
2018-03-22T02:11:39.095Z,38.9
2018-03-22T02:12:40.738Z,39.0
2018-03-22T02:13:42.393Z,41.1
2018-03-22T02:14:44.039Z,38.5
2018-03-22T02:15:45.684Z,38.0
2018-03-22T02:16:47.334Z,38.9
2018-03-22T02:17:48.982Z,37.2
2018-03-22T02:18:50.630Z,36.1
2018-03-22T02:19:52.273Z,35.0
2018-03-22T02:20:53.918Z,37.5
2018-03-22T02:21:55.568Z,36.3
2018-03-22T02:22:57.219Z,37.0
2018-03-22T02:23:58.867Z,35.7
2018-03-22T02:25:00.521Z,36.5
2018-03-22T02:26:02.159Z,36.5
2018-03-22T02:27:03.820Z,34.8
2018-03-22T02:28:05.467Z,34.6
2018-03-22T02:29:07.110Z,35.6
2018-03-22T02:30:08.757Z,36.1
2018-03-22T02:31:10.420Z,35.6
2018-03-22T02:32:12.069Z,37.7
2018-03-22T02:33:13.716Z,35.2
2018-03-22T02:34:15.365Z,35.2
2018-03-22T02:35:17.130Z,35.2
2018-03-22T02:36:18.776Z,35.3
2018-03-22T02:37:20.447Z,36.9
2018-03-22T02:38:22.081Z,36.7
2018-03-22T02:39:23.731Z,34.3
2018-03-22T02:40:25.386Z,35.1
2018-03-22T02:41:27.027Z,36.5
2018-03-22T02:42:28.679Z,35.4
2018-03-22T02:43:30.357Z,35.8
2018-03-22T02:44:32.012Z,35.6
2018-03-22T02:45:33.650Z,34.4
2018-03-22T02:46:35.288Z,34.6
2018-03-22T02:47:36.932Z,34.7
2018-03-22T02:48:38.578Z,36.8
2018-03-22T02:49:40.226Z,36.4
2018-03-22T02:50:41.866Z,35.9
2018-03-22T02:51:43.524Z,36.4
2018-03-22T02:52:45.171Z,37.3
2018-03-22T02:53:46.812Z,35.3
2018-03-22T02:54:48.458Z,36.7
2018-03-22T03:01:13.132Z,28.1
2018-03-22T03:02:14.795Z,29.5
2018-03-22T03:03:16.429Z,34.9
2018-03-22T03:04:18.265Z,36.5
2018-03-22T03:05:19.911Z,37.9
2018-03-22T03:06:21.549Z,36.6
2018-03-22T03:07:23.194Z,37.3
2018-03-22T03:08:24.841Z,38.1
2018-03-22T03:09:26.499Z,38.1
2018-03-22T03:10:28.145Z,38.7
2018-03-22T03:11:29.785Z,38.1
2018-03-22T03:12:31.434Z,37.7
2018-03-22T03:13:33.095Z,37.1
2018-03-22T03:14:34.739Z,36.7
2018-03-22T03:15:36.378Z,40.0
2018-03-22T03:16:38.030Z,38.0
2018-03-22T03:17:39.668Z,37.3
2018-03-22T03:18:41.321Z,38.7
2018-03-22T03:19:42.960Z,42.5
2018-03-22T03:20:44.607Z,39.8
2018-03-22T03:21:46.250Z,37.2
2018-03-22T03:22:47.960Z,38.4
2018-03-22T03:23:49.599Z,38.3
2018-03-22T03:24:51.248Z,38.7
2018-03-22T03:25:52.897Z,38.4
2018-03-22T03:26:54.545Z,39.0
2018-03-22T03:27:56.192Z,38.1
2018-03-22T03:28:57.838Z,34.2
2018-03-22T03:29:59.490Z,37.4
2018-03-22T03:31:01.149Z,38.7
2018-03-22T03:32:02.793Z,38.7
2018-03-22T03:33:04.434Z,37.2
2018-03-22T03:34:06.075Z,34.2
2018-03-22T03:35:07.763Z,33.6
2018-03-22T03:36:09.411Z,33.7
2018-03-22T03:37:11.052Z,32.8
2018-03-22T03:38:12.700Z,34.0
2018-03-22T03:39:14.334Z,33.7
2018-03-22T03:40:16.043Z,34.5
2018-03-22T03:41:17.708Z,33.9
2018-03-22T03:42:19.335Z,34.8
2018-03-22T03:43:20.984Z,33.1
2018-03-22T03:44:22.636Z,34.2
2018-03-22T03:45:24.274Z,33.8
2018-03-22T03:46:25.921Z,36.8
2018-03-22T03:47:27.562Z,34.1
2018-03-22T03:48:29.207Z,32.6
2018-03-22T03:49:30.857Z,35.2
2018-03-22T03:50:32.502Z,32.9
2018-03-22T03:51:34.146Z,33.9
2018-03-22T03:52:35.823Z,34.4
2018-03-22T03:53:37.465Z,34.9
2018-03-22T03:54:39.116Z,37.4
2018-03-22T03:55:40.758Z,36.1
2018-03-22T03:56:42.395Z,33.9
2018-03-22T03:57:44.050Z,33.2
2018-03-22T03:58:45.685Z,33.8
2018-03-22T03:59:47.350Z,34.6
2018-03-22T04:00:48.987Z,35.2
2018-03-22T04:01:50.639Z,33.8
2018-03-22T04:02:52.296Z,35.1
2018-03-22T04:03:53.949Z,33.8
2018-03-22T04:04:55.602Z,34.1
2018-03-22T04:05:57.251Z,34.9
2018-03-22T04:06:58.891Z,33.9
2018-03-22T04:08:00.528Z,33.9
2018-03-22T04:09:02.174Z,32.8
2018-03-22T04:10:03.827Z,34.3
2018-03-22T04:11:05.478Z,34.5
2018-03-22T04:12:07.110Z,33.4
2018-03-22T04:13:08.753Z,32.9
2018-03-22T04:14:10.396Z,34.3
2018-03-22T04:15:12.041Z,33.7
2018-03-22T04:16:13.682Z,34.0
2018-03-22T04:17:15.328Z,32.8
2018-03-22T04:18:16.981Z,32.0
2018-03-22T04:19:19.325Z,33.2
2018-03-22T04:20:20.978Z,34.6
2018-03-22T04:21:22.620Z,32.2
2018-03-22T04:22:24.279Z,33.7
2018-03-22T04:23:25.927Z,34.0
2018-03-22T04:24:27.580Z,35.4
2018-03-22T04:25:29.225Z,34.9
2018-03-22T04:26:30.875Z,33.7
2018-03-22T04:27:32.507Z,33.3
2018-03-22T04:28:34.151Z,33.3
2018-03-22T04:29:35.802Z,33.0
2018-03-22T04:30:37.441Z,33.0
2018-03-22T04:31:39.092Z,33.7
2018-03-22T04:32:40.740Z,34.3
2018-03-22T04:33:42.385Z,32.0
2018-03-22T04:34:44.040Z,34.4
2018-03-22T04:35:45.721Z,31.5
2018-03-22T04:36:47.332Z,33.6
2018-03-22T04:37:48.974Z,32.3
2018-03-22T04:38:50.622Z,33.2
2018-03-22T04:39:52.268Z,32.8
2018-03-22T04:40:53.915Z,33.6
2018-03-22T04:41:55.564Z,33.3
2018-03-22T04:42:57.213Z,33.5
2018-03-22T04:43:58.857Z,32.2
2018-03-22T04:45:00.502Z,31.4
2018-03-22T04:46:02.145Z,32.5
2018-03-22T04:47:03.796Z,31.7
2018-03-22T04:48:05.436Z,32.2
2018-03-22T04:49:07.106Z,33.0
2018-03-22T04:50:08.779Z,33.2
2018-03-22T04:51:10.420Z,32.6
2018-03-22T04:52:12.072Z,31.1
2018-03-22T04:53:13.724Z,30.6
2018-03-22T04:54:15.368Z,32.0
2018-03-22T04:55:17.040Z,33.1
2018-03-22T04:56:18.691Z,32.5
2018-03-22T04:57:20.341Z,31.7
2018-03-22T04:58:21.984Z,30.9
2018-03-22T04:59:23.636Z,32.2
2018-03-22T05:00:25.963Z,31.9
2018-03-22T05:01:27.629Z,31.7
2018-03-22T05:02:29.277Z,30.8
2018-03-22T05:03:30.922Z,31.4
2018-03-22T05:04:32.566Z,33.0
2018-03-22T05:05:34.209Z,31.9
2018-03-22T05:06:35.861Z,31.7
2018-03-22T05:07:37.513Z,32.8
2018-03-22T05:08:39.152Z,31.9
2018-03-22T05:09:40.804Z,33.7
2018-03-22T05:10:42.454Z,34.3
2018-03-22T05:11:44.162Z,33.5
2018-03-22T05:12:45.803Z,35.6
2018-03-22T05:13:47.455Z,35.8
2018-03-22T05:14:49.099Z,35.6
2018-03-22T05:15:50.739Z,36.9
2018-03-22T05:16:52.424Z,34.7
2018-03-22T05:17:54.062Z,36.1
2018-03-22T05:18:55.710Z,35.6
2018-03-22T05:19:57.364Z,34.9
2018-03-22T05:20:59.002Z,35.5
2018-03-22T05:22:00.656Z,35.6
2018-03-22T05:23:02.305Z,35.1
2018-03-22T05:24:03.954Z,36.3
2018-03-22T05:25:05.637Z,36.4
2018-03-22T05:26:07.262Z,38.1
2018-03-22T05:27:08.914Z,34.9
2018-03-22T05:28:10.556Z,36.4
2018-03-22T05:29:12.209Z,34.9
2018-03-22T05:30:13.922Z,36.6
2018-03-22T05:31:15.578Z,36.3
2018-03-22T05:32:17.236Z,35.5
2018-03-22T05:33:18.881Z,34.0
2018-03-22T05:34:20.532Z,35.7
2018-03-22T05:35:22.184Z,34.7
2018-03-22T05:36:23.833Z,36.7
2018-03-22T05:37:25.483Z,35.6
2018-03-22T05:38:27.145Z,35.4
2018-03-22T05:39:28.794Z,35.9
2018-03-22T05:40:30.454Z,36.6
2018-03-22T05:41:32.096Z,35.1
2018-03-22T05:42:33.742Z,31.2
2018-03-22T05:43:35.395Z,36.3
2018-03-22T05:44:37.045Z,36.0
2018-03-22T05:45:38.699Z,36.0
2018-03-22T05:46:40.359Z,37.9
2018-03-22T05:47:42.005Z,36.7
2018-03-22T05:48:43.668Z,36.8
2018-03-22T05:49:45.321Z,38.2
2018-03-22T05:50:46.959Z,34.0
2018-03-22T05:51:48.610Z,36.8
2018-03-22T05:52:50.264Z,36.8
2018-03-22T05:53:51.921Z,35.3
2018-03-22T05:54:53.583Z,35.6
2018-03-22T05:55:55.256Z,36.3
2018-03-22T05:56:56.901Z,37.1
2018-03-22T05:57:58.545Z,35.8
2018-03-22T05:59:00.202Z,36.4
2018-03-22T06:00:01.853Z,35.6
2018-03-22T06:01:03.505Z,36.9
2018-03-22T06:02:05.159Z,33.9
2018-03-22T06:03:06.860Z,35.2
2018-03-22T06:04:08.460Z,35.1
2018-03-22T06:05:10.126Z,37.2
2018-03-22T06:06:11.793Z,34.7
2018-03-22T06:07:13.443Z,38.3
2018-03-22T06:08:15.101Z,34.8
2018-03-22T06:09:16.745Z,37.7
2018-03-22T06:10:18.390Z,36.4
2018-03-22T06:11:20.048Z,36.8
2018-03-22T06:12:21.701Z,37.0
2018-03-22T06:13:23.347Z,36.9
2018-03-22T06:14:25.010Z,35.6
2018-03-22T06:15:26.659Z,35.4
2018-03-22T06:16:28.311Z,36.6
2018-03-22T06:17:30.021Z,37.4
2018-03-22T06:18:31.615Z,36.8
2018-03-22T06:19:33.272Z,35.8
2018-03-22T06:20:34.923Z,36.9
2018-03-22T06:21:36.598Z,37.8
2018-03-22T06:22:38.257Z,39.8
2018-03-22T06:23:39.911Z,38.3
2018-03-22T06:24:42.090Z,40.3
2018-03-22T06:25:43.783Z,40.4
2018-03-22T06:26:45.423Z,40.8
2018-03-22T06:27:47.075Z,36.7
2018-03-22T06:28:48.739Z,39.2
2018-03-22T06:29:50.392Z,38.8
2018-03-22T06:30:52.042Z,39.8
2018-03-22T06:31:53.691Z,40.8
2018-03-22T06:32:55.341Z,40.9
2018-03-22T06:33:57.011Z,39.7
2018-03-22T06:34:58.791Z,39.1
2018-03-22T06:36:00.431Z,42.2
2018-03-22T06:37:02.083Z,42.3
2018-03-22T06:38:03.774Z,42.7
2018-03-22T06:39:05.425Z,43.0
2018-03-22T06:40:07.093Z,42.9
2018-03-22T06:41:08.735Z,41.9
2018-03-22T06:42:10.526Z,45.0
2018-03-22T06:43:12.184Z,43.7
2018-03-22T06:44:13.837Z,44.9
2018-03-22T06:45:15.495Z,41.6
2018-03-22T06:46:17.144Z,42.1
2018-03-22T06:47:18.803Z,43.2
2018-03-22T06:48:20.460Z,41.1
2018-03-22T06:49:22.108Z,44.8
2018-03-22T06:50:23.775Z,43.6
2018-03-22T06:51:25.494Z,42.7
2018-03-22T06:52:27.149Z,44.1
2018-03-22T06:53:28.793Z,45.6
2018-03-22T06:54:30.444Z,45.8
2018-03-22T06:55:32.094Z,45.7
2018-03-22T07:02:03.138Z,32.0
2018-03-22T07:03:04.774Z,37.4
2018-03-22T07:04:06.426Z,40.4
2018-03-22T07:05:08.087Z,42.8
2018-03-22T07:06:09.734Z,48.4
2018-03-22T07:07:11.440Z,44.4
2018-03-22T07:08:13.098Z,48.1
2018-03-22T07:09:14.746Z,44.7
2018-03-22T07:10:16.413Z,45.5
2018-03-22T07:11:18.068Z,46.3
2018-03-22T07:12:19.714Z,42.3
2018-03-22T07:13:21.385Z,41.9
2018-03-22T07:14:23.036Z,40.9
2018-03-22T07:15:24.691Z,40.3
2018-03-22T07:16:26.360Z,41.6
2018-03-22T07:17:27.998Z,41.1
2018-03-22T07:18:29.647Z,39.1
2018-03-22T07:19:31.302Z,39.5
2018-03-22T07:20:32.949Z,40.2
2018-03-22T07:21:34.606Z,42.0
2018-03-22T07:22:36.264Z,40.4
2018-03-22T07:23:37.919Z,39.6
2018-03-22T07:24:39.570Z,39.5
2018-03-22T07:25:42.198Z,38.6
2018-03-22T07:26:43.863Z,38.6
2018-03-22T07:27:45.511Z,39.3
2018-03-22T07:28:47.164Z,38.1
2018-03-22T07:29:48.828Z,37.2
2018-03-22T07:30:50.480Z,36.8
2018-03-22T07:31:52.158Z,38.0
2018-03-22T07:32:55.077Z,39.2
2018-03-22T07:33:56.736Z,41.1
2018-03-22T07:34:58.394Z,39.8
2018-03-22T07:36:00.042Z,33.1
2018-03-22T07:37:01.730Z,32.8
2018-03-22T07:38:03.354Z,29.1
2018-03-22T07:39:05.017Z,30.7
2018-03-22T07:40:06.865Z,29.5
2018-03-22T07:41:08.532Z,30.5
2018-03-22T07:42:10.187Z,30.1
2018-03-22T07:43:11.863Z,29.5
2018-03-22T07:44:13.553Z,28.1
2018-03-22T07:45:15.228Z,29.2
2018-03-22T07:46:16.872Z,26.9
2018-03-22T07:47:18.560Z,27.8
2018-03-22T07:48:20.187Z,26.6
2018-03-22T07:49:21.844Z,27.3
2018-03-22T07:50:23.494Z,26.0
2018-03-22T07:51:25.148Z,24.9
2018-03-22T07:52:28.466Z,28.5
2018-03-22T07:53:29.995Z,29.3
2018-03-22T07:54:31.642Z,26.6
2018-03-22T07:55:33.290Z,26.2
2018-03-22T07:56:34.946Z,24.7
2018-03-22T07:57:36.594Z,25.2
2018-03-22T07:58:38.244Z,29.2
2018-03-22T07:59:39.893Z,27.3
2018-03-22T08:00:41.556Z,26.9
2018-03-22T08:01:43.211Z,25.4
2018-03-22T08:02:44.921Z,26.3
2018-03-22T08:03:46.574Z,25.6
2018-03-22T08:04:48.233Z,25.5
2018-03-22T08:05:49.952Z,26.5
2018-03-22T08:06:51.506Z,25.9
2018-03-22T08:07:53.213Z,24.3
2018-03-22T08:08:54.865Z,26.0
2018-03-22T08:09:56.521Z,26.0
2018-03-22T08:10:58.190Z,24.4
2018-03-22T08:11:59.843Z,25.1
2018-03-22T08:13:01.516Z,24.1
2018-03-22T08:14:03.181Z,24.0
2018-03-22T08:15:04.825Z,26.2
2018-03-22T08:16:06.492Z,24.5
2018-03-22T08:17:08.151Z,24.3
2018-03-22T08:18:09.802Z,24.0
2018-03-22T08:19:11.461Z,23.9
2018-03-22T08:20:13.133Z,24.7
2018-03-22T08:21:14.792Z,23.9
2018-03-22T08:22:16.454Z,23.7
2018-03-22T08:23:18.106Z,23.1
2018-03-22T08:24:19.753Z,24.0
2018-03-22T08:25:21.414Z,23.4
2018-03-22T08:26:23.069Z,24.2
2018-03-22T08:27:24.723Z,24.3
2018-03-22T08:28:26.377Z,23.6
2018-03-22T08:29:28.035Z,23.8
2018-03-22T08:30:29.692Z,24.5
2018-03-22T08:31:31.416Z,23.0
2018-03-22T08:32:33.067Z,24.9
2018-03-22T08:33:34.671Z,24.3
2018-03-22T08:34:36.320Z,25.0
2018-03-22T08:35:37.981Z,23.0
2018-03-22T08:36:39.628Z,24.5
2018-03-22T08:37:41.293Z,24.2
2018-03-22T08:38:42.948Z,24.2
2018-03-22T08:39:44.624Z,23.2
2018-03-22T08:40:46.279Z,23.2
2018-03-22T08:41:48.090Z,26.7
2018-03-22T08:42:49.753Z,21.1
2018-03-22T08:43:51.402Z,19.7
2018-03-22T08:44:53.052Z,22.1
2018-03-22T08:45:54.706Z,22.7
2018-03-22T08:46:56.366Z,19.9
2018-03-22T08:47:58.064Z,20.1
2018-03-22T08:48:59.752Z,20.5
2018-03-22T08:50:01.455Z,19.7
2018-03-22T08:51:03.106Z,20.8
2018-03-22T08:52:04.757Z,20.2
2018-03-22T08:53:06.416Z,21.4
2018-03-22T08:54:08.069Z,19.1
2018-03-22T08:55:09.758Z,18.4
2018-03-22T08:56:11.453Z,18.8
2018-03-22T08:57:13.117Z,18.2
2018-03-22T08:58:14.769Z,17.9
2018-03-22T08:59:16.422Z,20.0
2018-03-22T09:00:18.159Z,21.1
2018-03-22T09:01:19.807Z,19.5
2018-03-22T09:02:21.461Z,17.1
2018-03-22T09:03:23.191Z,18.2
2018-03-22T09:04:24.846Z,19.1
2018-03-22T09:05:26.489Z,16.9
2018-03-22T09:06:28.142Z,20.9
2018-03-22T09:07:29.798Z,26.6
2018-03-22T09:08:31.458Z,21.4
2018-03-22T09:09:33.107Z,20.2
2018-03-22T09:10:34.762Z,18.8
2018-03-22T09:11:36.420Z,18.5
2018-03-22T09:12:38.148Z,16.9
2018-03-22T09:13:39.811Z,16.8
2018-03-22T09:14:41.473Z,15.5
2018-03-22T09:15:43.174Z,14.9
2018-03-22T09:16:44.838Z,18.8
2018-03-22T09:17:46.489Z,16.7
2018-03-22T09:18:48.145Z,14.8
2018-03-22T09:19:49.800Z,16.1
2018-03-22T09:20:51.446Z,16.3
2018-03-22T09:21:53.106Z,14.8
2018-03-22T09:22:54.756Z,17.0
2018-03-22T09:23:56.414Z,16.9
2018-03-22T09:24:58.071Z,14.9
2018-03-22T09:25:59.732Z,16.6
2018-03-22T09:27:01.392Z,16.9
2018-03-22T09:28:03.049Z,13.6
2018-03-22T09:29:04.703Z,14.4
2018-03-22T09:30:06.395Z,14.2
2018-03-22T09:31:08.054Z,13.9
2018-03-22T09:32:09.717Z,14.1
2018-03-22T09:33:11.380Z,12.3
2018-03-22T09:34:13.029Z,12.4
2018-03-22T09:35:14.686Z,12.7
2018-03-22T09:36:16.335Z,13.1
2018-03-22T09:37:17.988Z,13.4
2018-03-22T09:38:19.688Z,12.6
2018-03-22T09:39:21.348Z,14.2
2018-03-22T09:40:23.005Z,13.0
2018-03-22T09:41:24.667Z,12.8
2018-03-22T09:42:26.325Z,12.8
2018-03-22T09:43:27.987Z,13.4
2018-03-22T09:44:29.637Z,12.2
2018-03-22T09:45:31.284Z,12.7
2018-03-22T09:46:32.960Z,12.1
2018-03-22T09:47:34.598Z,12.5
2018-03-22T09:48:36.250Z,12.4
2018-03-22T09:49:37.911Z,11.9
2018-03-22T09:50:39.568Z,12.3
2018-03-22T09:51:41.281Z,10.8
2018-03-22T09:52:42.943Z,10.1
2018-03-22T09:53:44.659Z,11.4
2018-03-22T09:54:46.267Z,12.3
2018-03-22T09:55:47.924Z,11.2
2018-03-22T09:56:49.576Z,11.0
2018-03-22T09:57:51.264Z,10.7
2018-03-22T09:58:52.893Z,10.1
2018-03-22T09:59:54.555Z,10.6
2018-03-22T10:00:56.210Z,11.2
2018-03-22T10:01:57.873Z,10.9
2018-03-22T10:02:59.535Z,11.4
2018-03-22T10:04:01.191Z,11.6
2018-03-22T10:05:02.846Z,10.4
2018-03-22T10:06:04.502Z,10.2
2018-03-22T10:07:06.160Z,9.4
2018-03-22T10:08:07.813Z,9.6
2018-03-22T10:09:09.474Z,9.4
2018-03-22T10:10:11.164Z,9.9
2018-03-22T10:11:12.787Z,8.7
2018-03-22T10:12:14.498Z,8.7
2018-03-22T10:13:16.113Z,8.8
2018-03-22T10:14:17.773Z,9.5
2018-03-22T10:15:19.420Z,8.7
2018-03-22T10:16:21.125Z,9.1
2018-03-22T10:17:22.737Z,9.1
2018-03-22T10:18:24.403Z,9.8
2018-03-22T10:19:26.051Z,8.9
2018-03-22T10:20:27.711Z,10.2
2018-03-22T10:21:29.368Z,8.9
2018-03-22T10:22:31.043Z,8.9
2018-03-22T10:23:32.698Z,10.1
2018-03-22T10:24:34.371Z,9.9
2018-03-22T10:25:36.024Z,9.6
2018-03-22T10:26:37.684Z,8.8
2018-03-22T10:27:39.342Z,7.8
2018-03-22T10:28:40.995Z,8.6
2018-03-22T10:29:42.663Z,8.7
2018-03-22T10:30:44.321Z,8.3
2018-03-22T10:31:45.976Z,9.0
2018-03-22T10:32:47.640Z,8.4
2018-03-22T10:33:49.293Z,7.8
2018-03-22T10:34:50.962Z,7.1
2018-03-22T10:35:52.653Z,8.5
2018-03-22T10:36:54.263Z,8.5
2018-03-22T10:37:55.960Z,8.5
2018-03-22T10:38:57.621Z,7.2
2018-03-22T10:39:59.330Z,8.0
2018-03-22T10:41:00.987Z,8.8
2018-03-22T10:42:02.667Z,8.2
2018-03-22T10:43:04.313Z,7.5
2018-03-22T10:44:05.979Z,7.0
2018-03-22T10:45:07.634Z,8.6
2018-03-22T10:46:09.280Z,8.3
2018-03-22T10:47:10.946Z,7.1
2018-03-22T10:48:12.613Z,7.5
2018-03-22T10:49:14.263Z,6.2
2018-03-22T10:50:15.919Z,6.7
2018-03-22T10:51:17.570Z,6.9
2018-03-22T10:52:19.228Z,7.1
2018-03-22T10:53:20.891Z,7.9
2018-03-22T10:54:22.565Z,7.1
2018-03-22T10:55:24.221Z,8.1
2018-03-22T11:01:29.110Z,5.5
2018-03-22T11:02:30.769Z,6.3
2018-03-22T11:03:32.424Z,7.3
2018-03-22T11:04:34.095Z,6.3
2018-03-22T11:05:35.752Z,7.0
2018-03-22T11:06:37.420Z,6.1
2018-03-22T11:07:39.074Z,5.8
2018-03-22T11:08:40.726Z,5.3
2018-03-22T11:09:42.388Z,5.9
2018-03-22T11:10:44.136Z,5.3
2018-03-22T11:11:45.792Z,6.2
2018-03-22T11:12:47.465Z,5.6
2018-03-22T11:13:49.128Z,5.2
2018-03-22T11:14:50.767Z,5.6
2018-03-22T11:15:52.418Z,5.1
2018-03-22T11:16:54.101Z,5.6
2018-03-22T11:17:55.743Z,6.4
2018-03-22T11:18:57.406Z,5.6
2018-03-22T11:19:59.053Z,5.9
2018-03-22T11:21:00.714Z,4.9
2018-03-22T11:22:02.361Z,5.1
2018-03-22T11:23:04.022Z,5.9
2018-03-22T11:24:05.676Z,5.3
2018-03-22T11:25:07.331Z,5.6
2018-03-22T11:26:08.985Z,5.6
2018-03-22T11:27:10.796Z,5.8
2018-03-22T11:28:12.449Z,5.2
2018-03-22T11:29:14.121Z,5.4
2018-03-22T11:30:15.895Z,5.2
2018-03-22T11:31:17.543Z,5.1
2018-03-22T11:32:19.198Z,5.1
2018-03-22T11:33:20.853Z,4.8
2018-03-22T11:34:22.532Z,4.6
2018-03-22T11:35:24.171Z,4.5
2018-03-22T11:36:25.829Z,4.6
2018-03-22T11:37:27.477Z,5.2
2018-03-22T11:38:29.133Z,5.1
2018-03-22T11:39:30.795Z,5.7
2018-03-22T11:40:32.440Z,5.2
2018-03-22T11:41:34.132Z,5.0
2018-03-22T11:42:35.789Z,5.3
2018-03-22T11:43:37.441Z,5.2
2018-03-22T11:44:39.109Z,5.2
2018-03-22T11:45:40.776Z,5.3
2018-03-22T11:46:42.431Z,5.7
2018-03-22T11:47:44.123Z,4.8
2018-03-22T11:48:45.805Z,4.6
2018-03-22T11:49:47.532Z,4.9
2018-03-22T11:50:49.256Z,4.7
2018-03-22T11:51:50.864Z,4.6
2018-03-22T11:52:52.541Z,5.6
2018-03-22T11:53:54.298Z,5.4
2018-03-22T11:54:55.916Z,5.5
2018-03-22T11:55:57.570Z,4.6
2018-03-22T11:56:59.949Z,4.6
2018-03-22T11:58:01.722Z,4.9
2018-03-22T11:59:03.389Z,4.7
2018-03-22T12:00:05.023Z,4.6
2018-03-22T12:01:06.684Z,4.7
2018-03-22T12:02:08.369Z,4.6
2018-03-22T12:03:10.014Z,4.8
2018-03-22T12:04:11.782Z,4.7
2018-03-22T12:05:14.307Z,4.9
2018-03-22T12:06:15.969Z,5.0
2018-03-22T12:07:17.663Z,4.6
2018-03-22T12:08:19.303Z,4.7
2018-03-22T12:09:20.950Z,5.0
2018-03-22T12:10:22.617Z,4.9
2018-03-22T12:11:24.258Z,5.2
2018-03-22T12:12:25.978Z,5.6
2018-03-22T12:13:27.601Z,6.9
2018-03-22T12:14:29.252Z,5.1
2018-03-22T12:15:30.907Z,5.3
2018-03-22T12:16:32.567Z,4.7
2018-03-22T12:17:34.222Z,5.5
2018-03-22T12:18:35.900Z,5.0
2018-03-22T12:19:37.528Z,5.1
2018-03-22T12:20:39.263Z,5.4
2018-03-22T12:21:40.947Z,5.0
2018-03-22T12:22:42.569Z,4.8
2018-03-22T12:23:44.214Z,5.0
2018-03-22T12:24:45.871Z,4.9
2018-03-22T12:25:47.544Z,4.7
2018-03-22T12:26:49.197Z,5.1
2018-03-22T12:27:51.681Z,5.4
2018-03-22T12:28:53.332Z,5.2
2018-03-22T12:29:54.992Z,5.2
2018-03-22T12:30:56.648Z,5.4
2018-03-22T12:31:58.311Z,5.2
2018-03-22T12:32:59.958Z,4.9
2018-03-22T12:34:01.613Z,5.7
2018-03-22T12:35:03.280Z,4.7
2018-03-22T12:36:04.941Z,4.2
2018-03-22T12:37:06.592Z,4.7
2018-03-22T12:38:08.244Z,4.6
2018-03-22T12:39:10.432Z,4.7
2018-03-22T12:40:12.080Z,4.6
2018-03-22T12:41:13.748Z,5.6
2018-03-22T12:42:15.400Z,4.5
2018-03-22T12:43:17.132Z,4.7
2018-03-22T12:44:18.713Z,4.5
2018-03-22T12:45:20.367Z,5.1
2018-03-22T12:46:22.016Z,5.5
2018-03-22T12:47:23.676Z,5.5
2018-03-22T12:48:25.332Z,5.5
2018-03-22T12:49:26.990Z,6.5
2018-03-22T12:50:28.641Z,4.4
2018-03-22T12:51:30.334Z,4.9
2018-03-22T12:52:31.986Z,5.0
2018-03-22T12:53:33.646Z,4.8
2018-03-22T12:54:35.301Z,4.7
2018-03-22T12:55:36.953Z,5.3
2018-03-22T12:56:38.613Z,5.1
2018-03-22T12:57:40.265Z,5.5
2018-03-22T12:58:41.920Z,5.7
2018-03-22T12:59:43.574Z,5.2
2018-03-22T13:00:45.231Z,4.6
2018-03-22T13:01:46.885Z,7.7
2018-03-22T13:02:48.545Z,6.2
2018-03-22T13:03:50.203Z,4.7
2018-03-22T13:04:51.858Z,5.1
2018-03-22T13:05:53.509Z,6.5
2018-03-22T13:06:55.169Z,5.9
2018-03-22T13:07:56.831Z,7.0
2018-03-22T13:08:58.490Z,7.7
2018-03-22T13:10:00.169Z,5.8
2018-03-22T13:11:01.825Z,5.1
2018-03-22T13:12:03.475Z,5.4
2018-03-22T13:13:05.142Z,5.1
2018-03-22T13:14:06.784Z,5.5
2018-03-22T13:15:08.440Z,5.2
2018-03-22T13:16:10.095Z,5.0
2018-03-22T13:17:11.747Z,5.9
2018-03-22T13:18:13.435Z,5.6
2018-03-22T13:19:15.121Z,5.6
2018-03-22T13:20:16.785Z,5.3
2018-03-22T13:21:18.437Z,5.6
2018-03-22T13:22:20.145Z,6.2
2018-03-22T13:23:21.803Z,4.9
2018-03-22T13:24:23.589Z,6.1
2018-03-22T13:25:25.243Z,5.6
2018-03-22T13:26:26.913Z,6.0
2018-03-22T13:27:28.572Z,6.1
2018-03-22T13:28:30.268Z,5.9
2018-03-22T13:29:31.919Z,6.8
2018-03-22T13:30:33.576Z,6.1
2018-03-22T13:31:35.233Z,6.8
2018-03-22T13:32:36.966Z,6.4
2018-03-22T13:33:38.619Z,7.0
2018-03-22T13:34:40.323Z,6.9
2018-03-22T13:35:41.978Z,6.8
2018-03-22T13:36:43.638Z,6.9
2018-03-22T13:37:45.302Z,7.4
2018-03-22T13:38:49.140Z,6.9
2018-03-22T13:39:50.796Z,7.1
2018-03-22T13:40:52.583Z,6.9
2018-03-22T13:41:54.240Z,6.8
2018-03-22T13:42:55.897Z,7.4
2018-03-22T13:43:57.555Z,8.2
2018-03-22T13:44:59.332Z,8.1
2018-03-22T13:46:01.693Z,7.9
2018-03-22T13:47:03.340Z,8.0
2018-03-22T13:48:05.009Z,8.0
2018-03-22T13:49:06.736Z,9.1
2018-03-22T13:50:08.375Z,8.5
2018-03-22T13:51:10.168Z,8.5
2018-03-22T13:52:12.399Z,8.0
2018-03-22T13:53:14.114Z,8.5
2018-03-22T13:54:15.778Z,8.8
2018-03-22T13:55:17.434Z,7.7
2018-03-22T13:56:19.111Z,8.4
2018-03-22T13:57:21.275Z,8.2
2018-03-22T13:58:22.935Z,8.4
2018-03-22T13:59:24.589Z,8.2
2018-03-22T14:00:26.742Z,8.7
2018-03-22T14:01:28.406Z,8.8
2018-03-22T14:02:30.067Z,8.7
2018-03-22T14:03:31.720Z,8.8